Time;durP1;ratioP1;P1;durP2;ratioP2;P2;SDS_P1;SDS_P2;PMS_P1;PMS_P2;Temp;Humidity;BMP_temperature;BMP_pressure;BME280_temperature;BME280_humidity;BME280_pressure;Samples;Min_cycle;Max_cycle;Signal;HPM_P1;HPM_P2
2021/05/12 00:00:20;;;;;;;4.10;2.47;;;;;;;15.72;40.70;99299.34;5057107;28;20040;-76
2021/05/12 00:02:45;;;;;;;6.85;2.22;;;;;;;15.75;40.68;99320.19;5057301;28;20025;-77
2021/05/12 00:05:12;;;;;;;2.47;2.00;;;;;;;16.01;40.60;99366.28;5057131;28;20033;-77
2021/05/12 00:07:38;;;;;;;4.43;2.35;;;;;;;16.07;40.82;99376.06;5057143;28;20451;-77
2021/05/12 00:10:06;;;;;;;4.18;2.30;;;;;;;15.92;40.98;99378.22;5056905;28;20060;-77
2021/05/12 00:12:31;;;;;;;3.75;2.05;;;;;;;15.98;40.92;99372.03;5056883;28;20112;-77
2021/05/12 00:14:56;;;;;;;6.25;2.40;;;;;;;15.77;40.94;99344.75;5056919;28;20029;-77
2021/05/12 00:17:22;;;;;;;3.45;1.90;;;;;;;15.86;41.21;99364.75;5056813;28;20424;-77
2021/05/12 00:19:59;;;;;;;7.10;2.63;;;;;;;15.81;41.19;99351.28;5057129;28;20021;-76
2021/05/12 00:25:10;;;;;;;4.38;2.40;;;;;;;15.57;41.49;99315.59;5057140;28;20044;-77
2021/05/12 00:27:37;;;;;;;4.75;2.42;;;;;;;15.48;41.65;99305.41;5056695;28;20032;-77
2021/05/12 00:30:06;;;;;;;4.82;2.50;;;;;;;15.64;41.76;99350.19;5056797;28;20040;-76
2021/05/12 00:32:31;;;;;;;2.70;2.00;;;;;;;15.56;41.99;99340.53;5038853;28;20032;-77
2021/05/12 00:34:56;;;;;;;6.03;2.33;;;;;;;15.43;42.09;99305.22;5056579;28;20398;-76
2021/05/12 00:37:22;;;;;;;5.85;2.60;;;;;;;15.65;41.90;99321.72;5055837;28;20493;-76
2021/05/12 00:39:47;;;;;;;5.47;2.55;;;;;;;15.76;41.92;99342.31;5056510;28;20041;-77
2021/05/12 00:42:13;;;;;;;5.05;2.30;;;;;;;15.53;41.87;99292.25;5056401;28;20037;-76
2021/05/12 00:44:38;;;;;;;6.55;2.70;;;;;;;15.79;41.76;99331.22;5056509;28;20025;-76
2021/05/12 00:47:05;;;;;;;6.25;2.47;;;;;;;15.75;41.71;99325.53;5056409;28;20024;-77
2021/05/12 00:49:35;;;;;;;7.32;2.40;;;;;;;15.50;41.61;99282.88;5038618;28;20455;-77
2021/05/12 00:52:01;;;;;;;3.92;2.17;;;;;;;15.81;41.28;99332.66;5056259;28;20442;-75
2021/05/12 00:54:26;;;;;;;2.58;2.30;;;;;;;15.73;41.60;99340.09;5056152;28;20025;-75
2021/05/12 00:56:52;;;;;;;4.07;2.88;;;;;;;15.70;41.59;99336.00;5056186;28;20162;-76
2021/05/12 00:59:19;;;;;;;6.25;3.65;;;;;;;15.60;41.84;99332.97;5056093;28;20025;-75
2021/05/12 01:01:45;;;;;;;4.50;2.70;;;;;;;15.23;41.85;99284.06;5056202;28;20025;-76
2021/05/12 01:04:10;;;;;;;5.60;3.10;;;;;;;15.43;41.93;99321.19;5038333;28;20028;-76
2021/05/12 01:06:38;;;;;;;6.38;3.22;;;;;;;15.25;42.19;99327.25;5056422;28;20020;-75
2021/05/12 01:09:08;;;;;;;6.15;3.30;;;;;;;14.88;41.94;99267.72;5056656;28;20086;-76
2021/05/12 01:11:35;;;;;;;5.78;3.28;;;;;;;15.14;42.06;99314.63;5038419;28;20036;-75
2021/05/12 01:14:02;;;;;;;6.13;3.22;;;;;;;15.15;42.09;99334.88;5055951;28;20081;-77
2021/05/12 01:16:28;;;;;;;7.15;2.80;;;;;;;15.10;42.16;99327.53;5055995;28;20029;-77
2021/05/12 01:18:53;;;;;;;5.15;2.90;;;;;;;15.05;42.35;99315.88;5058172;28;20032;-77
2021/05/12 01:21:18;;;;;;;6.32;3.05;;;;;;;14.48;42.65;99240.47;5038044;28;20027;-78
2021/05/12 01:23:48;;;;;;;4.10;2.78;;;;;;;14.51;42.65;99258.66;5055618;28;20060;-77
2021/05/12 01:26:18;;;;;;;7.18;3.50;;;;;;;14.72;42.84;99290.25;5055471;28;20104;-77
2021/05/12 01:28:47;;;;;;;4.75;3.00;;;;;;;14.60;43.20;99321.16;5055889;28;20114;-77
2021/05/12 01:31:17;;;;;;;5.72;2.97;;;;;;;14.63;42.93;99323.41;5037751;28;20025;-75
2021/05/12 01:33:45;;;;;;;8.25;3.08;;;;;;;14.41;42.88;99295.44;5055667;28;20029;-76
2021/05/12 01:36:12;;;;;;;4.45;2.78;;;;;;;14.56;42.99;99319.94;5055289;28;20053;-75
2021/05/12 01:38:40;;;;;;;5.25;2.88;;;;;;;14.45;43.00;99307.31;5055595;28;20032;-76
2021/05/12 01:41:06;;;;;;;7.18;2.78;;;;;;;14.32;43.06;99298.31;5055303;28;20025;-77
2021/05/12 01:43:34;;;;;;;5.03;3.10;;;;;;;14.35;43.27;99307.72;5055193;28;20090;-76
2021/05/12 01:45:59;;;;;;;5.32;2.80;;;;;;;14.24;43.06;99295.88;5055262;28;20027;-75
2021/05/12 01:48:25;;;;;;;4.30;2.65;;;;;;;14.18;43.00;99280.78;5054652;28;20486;-77
2021/05/12 01:50:51;;;;;;;4.50;3.22;;;;;;;14.25;43.19;99297.53;5054694;28;20063;-77
2021/05/12 01:53:17;;;;;;;5.30;2.95;;;;;;;14.17;43.44;99278.34;5037348;28;20056;-74
2021/05/12 01:55:43;;;;;;;6.07;3.17;;;;;;;14.29;43.26;99287.31;5054998;28;20052;-77
2021/05/12 01:58:08;;;;;;;4.07;3.10;;;;;;;14.23;43.33;99272.19;5055042;28;20033;-77
2021/05/12 02:00:40;;;;;;;5.35;3.17;;;;;;;14.34;43.24;99284.03;5037202;28;20040;-76
2021/05/12 02:03:10;;;;;;;3.65;3.17;;;;;;;13.88;43.21;99210.59;5055127;28;20048;-77
2021/05/12 02:05:38;;;;;;;5.82;3.13;;;;;;;13.81;42.98;99193.84;5037370;28;20047;-74
2021/05/12 02:08:06;;;;;;;5.20;3.35;;;;;;;14.32;43.45;99281.56;5055023;28;20029;-77
2021/05/12 02:10:33;;;;;;;6.70;3.45;;;;;;;14.33;43.15;99272.59;5037044;28;20056;-77
2021/05/12 02:12:59;;;;;;;5.28;3.33;;;;;;;14.39;43.33;99277.06;5054890;28;20028;-77
2021/05/12 02:15:25;;;;;;;7.28;4.15;;;;;;;14.19;43.11;99231.97;5054581;28;20036;-77
2021/05/12 02:17:51;;;;;;;6.53;3.60;;;;;;;13.72;43.26;99148.16;5037121;28;20351;-77
2021/05/12 02:20:23;;;;;;;8.40;4.00;;;;;;;13.99;42.94;99188.72;5054598;28;20029;-77
2021/05/12 02:22:49;;;;;;;9.60;3.67;;;;;;;14.26;43.01;99222.16;5054800;28;20060;-75
2021/05/12 02:25:15;;;;;;;4.95;3.15;;;;;;;14.41;43.05;99247.63;5054491;28;20063;-75
2021/05/12 02:27:41;;;;;;;6.03;3.30;;;;;;;14.10;43.46;99219.91;5054646;28;20016;-75
2021/05/12 02:30:09;;;;;;;4.47;3.25;;;;;;;14.20;43.25;99220.31;5054585;28;20388;-76
2021/05/12 02:32:34;;;;;;;11.57;3.97;;;;;;;14.17;43.24;99225.25;5054439;28;20415;-75
2021/05/12 02:35:00;;;;;;;5.82;3.10;;;;;;;14.34;43.01;99249.50;5054368;28;20035;-77
2021/05/12 02:37:26;;;;;;;8.60;3.50;;;;;;;14.51;42.85;99261.31;5036771;28;20040;-77
2021/05/12 02:39:53;;;;;;;6.05;3.13;;;;;;;14.45;42.47;99260.31;5054672;28;20090;-77
2021/05/12 02:42:18;;;;;;;4.82;2.90;;;;;;;13.93;42.74;99190.34;5054477;28;20029;-77
2021/05/12 02:44:44;;;;;;;5.55;3.42;;;;;;;14.22;43.09;99242.19;5054482;28;20141;-77
2021/05/12 02:47:09;;;;;;;7.53;3.65;;;;;;;14.12;43.10;99259.53;5054464;28;20021;-76
2021/05/12 02:49:35;;;;;;;4.63;3.22;;;;;;;14.16;43.15;99263.44;5054188;28;20078;-77
2021/05/12 02:52:01;;;;;;;6.07;4.03;;;;;;;14.09;43.28;99263.41;5054327;28;20118;-76
2021/05/12 02:54:26;;;;;;;9.18;4.13;;;;;;;12.97;43.89;99170.59;5054277;28;20029;-75
2021/05/12 02:56:52;;;;;;;4.93;3.70;;;;;;;13.33;44.77;99277.09;5036553;28;20436;-77
2021/05/12 02:59:17;;;;;;;7.80;4.00;;;;;;;13.18;44.65;99257.91;5054307;28;20102;-77
2021/05/12 03:01:43;;;;;;;7.78;3.58;;;;;;;13.05;44.71;99220.75;5057431;28;20060;-76
2021/05/12 03:04:08;;;;;;;7.07;4.05;;;;;;;13.43;44.54;99270.59;5058631;28;20036;-77
2021/05/12 03:06:34;;;;;;;9.77;4.32;;;;;;;13.21;44.65;99235.47;5058926;28;20055;-76
2021/05/12 03:08:59;;;;;;;8.15;4.32;;;;;;;13.12;44.47;99223.41;5040704;28;20020;-76
2021/05/12 03:11:24;;;;;;;8.10;5.38;;;;;;;13.19;44.84;99233.03;5057966;28;20047;-76
2021/05/12 03:13:50;;;;;;;7.05;4.72;;;;;;;13.22;44.84;99235.28;5058129;28;20033;-76
2021/05/12 03:16:16;;;;;;;8.82;4.53;;;;;;;13.25;44.79;99242.81;5057926;28;20036;-77
2021/05/12 03:18:41;;;;;;;11.98;5.55;;;;;;;13.48;44.42;99265.50;5058104;28;20025;-75
2021/05/12 03:21:06;;;;;;;9.68;5.22;;;;;;;13.45;44.09;99268.56;5057912;28;20101;-76
2021/05/12 03:23:32;;;;;;;7.43;5.20;;;;;;;13.42;44.28;99271.63;5057842;28;20344;-77
2021/05/12 03:25:57;;;;;;;7.88;4.82;;;;;;;13.28;44.88;99260.16;5057891;28;20024;-76
2021/05/12 03:28:23;;;;;;;8.13;4.60;;;;;;;13.18;44.40;99246.50;5057757;28;20028;-76
2021/05/12 03:30:48;;;;;;;8.60;5.00;;;;;;;13.32;44.58;99266.69;5057832;28;20467;-77
2021/05/12 03:33:14;;;;;;;11.00;4.95;;;;;;;13.19;45.06;99256.88;5057800;28;20030;-76
2021/05/12 03:35:41;;;;;;;11.93;4.70;;;;;;;13.35;44.76;99255.69;5057708;28;20420;-75
2021/05/12 03:38:09;;;;;;;6.70;4.63;;;;;;;13.44;44.31;99257.16;5039921;28;20449;-77
2021/05/12 03:40:34;;;;;;;8.70;4.85;;;;;;;13.47;44.63;99258.56;5057493;28;20431;-77
2021/05/12 03:43:00;;;;;;;18.67;6.57;;;;;;;13.39;44.30;99243.69;5057748;28;20025;-77
2021/05/12 03:45:27;;;;;;;9.13;4.65;;;;;;;13.52;44.10;99253.47;5057431;28;20017;-77
2021/05/12 03:47:53;;;;;;;10.57;5.00;;;;;;;13.60;44.36;99253.28;5057460;28;20033;-75
2021/05/12 03:50:20;;;;;;;7.30;4.40;;;;;;;13.53;43.82;99229.41;5039691;28;20450;-77
2021/05/12 03:52:46;;;;;;;8.85;4.53;;;;;;;13.44;44.11;99220.03;5057312;28;20035;-76
2021/05/12 03:55:12;;;;;;;11.73;5.15;;;;;;;13.73;44.03;99255.91;5057307;28;20093;-76
2021/05/12 03:57:38;;;;;;;9.63;4.97;;;;;;;13.77;44.00;99248.38;5039467;28;20075;-76
2021/05/12 04:00:05;;;;;;;10.90;4.82;;;;;;;13.82;44.19;99249.38;5039641;28;20423;-77
2021/05/12 04:02:31;;;;;;;8.30;4.70;;;;;;;13.94;43.97;99252.22;5057007;28;20052;-77
2021/05/12 04:04:56;;;;;;;9.18;5.18;;;;;;;13.72;43.59;99209.19;5057213;28;20108;-77
2021/05/12 04:07:22;;;;;;;7.75;4.78;;;;;;;13.89;43.40;99228.94;5057000;28;20416;-77
2021/05/12 04:09:48;;;;;;;10.55;4.40;;;;;;;13.85;43.95;99222.44;5039243;28;20043;-76
2021/05/12 04:12:13;;;;;;;9.32;4.97;;;;;;;13.95;43.75;99230.78;5056293;28;20406;-76
2021/05/12 04:14:39;;;;;;;6.68;4.60;;;;;;;13.76;43.72;99193.66;5056797;28;20021;-76
2021/05/12 04:17:04;;;;;;;7.93;4.50;;;;;;;13.84;43.71;99196.09;5056926;28;20063;-77
2021/05/12 04:19:30;;;;;;;9.23;4.88;;;;;;;13.99;43.94;99213.41;5056747;28;20028;-76
2021/05/12 04:21:55;;;;;;;11.55;5.53;;;;;;;14.02;43.75;99225.44;5056950;28;20078;-77
2021/05/12 04:24:21;;;;;;;12.75;6.03;;;;;;;13.97;44.05;99246.50;5056529;28;20446;-77
2021/05/12 04:26:46;;;;;;;13.10;6.40;;;;;;;13.68;44.34;99231.84;5039070;28;20032;-77
2021/05/12 04:29:12;;;;;;;9.90;5.50;;;;;;;13.65;44.97;99227.75;5056765;28;20032;-76
2021/05/12 04:31:39;;;;;;;9.50;5.60;;;;;;;13.29;44.78;99174.31;5039168;28;20025;-77
2021/05/12 04:34:05;;;;;;;9.38;6.07;;;;;;;13.77;44.75;99235.91;5056673;28;20347;-77
2021/05/12 04:36:30;;;;;;;12.13;5.80;;;;;;;13.76;44.49;99234.28;5056434;28;20025;-77
2021/05/12 04:38:55;;;;;;;8.20;5.00;;;;;;;13.82;44.94;99238.75;5056427;28;20355;-77
2021/05/12 04:41:21;;;;;;;7.75;5.63;;;;;;;13.96;44.48;99235.06;5056404;28;20146;-77
2021/05/12 04:43:48;;;;;;;7.88;5.72;;;;;;;14.13;44.63;99238.13;5038804;28;20431;-76
2021/05/12 04:46:13;;;;;;;9.13;5.63;;;;;;;13.93;44.52;99208.94;5056361;28;20086;-77
2021/05/12 04:48:39;;;;;;;9.77;5.32;;;;;;;13.86;44.37;99199.34;5056188;28;20025;-77
2021/05/12 04:51:05;;;;;;;11.68;5.50;;;;;;;13.83;44.58;99192.63;5056513;28;20025;-77
2021/05/12 04:53:31;;;;;;;12.82;5.65;;;;;;;13.85;44.71;99193.22;5057770;28;20029;-78
2021/05/12 04:55:56;;;;;;;12.27;5.03;;;;;;;14.03;44.50;99195.22;5056035;28;20029;-78
2021/05/12 04:58:22;;;;;;;7.25;4.70;;;;;;;14.34;44.63;99222.94;5056072;28;20028;-78
2021/05/12 05:00:48;;;;;;;17.15;5.88;;;;;;;14.39;44.49;99228.44;5056062;28;20029;-77
2021/05/12 05:03:14;;;;;;;10.65;4.85;;;;;;;14.40;44.43;99208.81;5055958;28;20029;-76
2021/05/12 05:05:39;;;;;;;8.13;5.03;;;;;;;14.50;44.31;99220.66;5055823;28;20079;-78
2021/05/12 05:08:05;;;;;;;13.98;5.82;;;;;;;14.56;44.32;99224.31;5055716;28;20056;-77
2021/05/12 05:10:31;;;;;;;15.82;5.43;;;;;;;14.46;44.67;99208.00;5055478;28;20411;-76
2021/05/12 05:12:56;;;;;;;11.75;5.40;;;;;;;14.38;44.51;99195.75;5056234;28;20339;-77
2021/05/12 05:15:23;;;;;;;9.23;5.43;;;;;;;14.57;44.63;99210.00;5037916;28;20029;-77
2021/05/12 05:17:50;;;;;;;9.65;5.38;;;;;;;14.69;44.66;99224.25;5037977;28;20082;-77
2021/05/12 05:20:16;;;;;;;9.50;5.95;;;;;;;14.47;44.64;99167.13;5055078;28;20032;-78
2021/05/12 05:22:41;;;;;;;9.00;5.15;;;;;;;14.69;44.68;99204.81;5055266;28;20125;-76
2021/05/12 05:25:07;;;;;;;8.50;5.22;;;;;;;14.66;44.74;99186.66;5054823;28;20459;-77
2021/05/12 05:27:33;;;;;;;12.43;5.55;;;;;;;14.79;44.43;99205.16;5055136;28;20029;-75
2021/05/12 05:30:01;;;;;;;10.77;5.47;;;;;;;14.76;44.56;99179.84;5055474;28;20423;-77
2021/05/12 05:32:27;;;;;;;9.40;5.40;;;;;;;14.51;44.60;99121.34;5055290;28;20028;-75
2021/05/12 05:34:53;;;;;;;10.75;5.10;;;;;;;14.82;44.80;99152.41;5055406;28;20031;-74
2021/05/12 05:37:18;;;;;;;9.45;5.97;;;;;;;15.17;44.37;99197.19;5054637;28;20032;-77
2021/05/12 05:39:43;;;;;;;8.82;5.10;;;;;;;15.03;44.29;99158.41;5053097;28;20067;-77
2021/05/12 05:42:10;;;;;;;7.68;5.00;;;;;;;15.23;44.15;99173.19;5054221;28;20044;-76
2021/05/12 05:44:36;;;;;;;7.72;5.55;;;;;;;15.47;44.12;99192.84;5053377;28;20460;-76
2021/05/12 05:47:02;;;;;;;8.90;6.30;;;;;;;15.60;43.93;99197.25;5036614;28;20063;-76
2021/05/12 05:49:28;;;;;;;13.77;7.00;;;;;;;15.71;43.51;99201.06;5054409;28;20032;-77
2021/05/12 05:51:54;;;;;;;10.98;7.15;;;;;;;15.81;43.32;99194.22;5054979;28;20025;-77
2021/05/12 05:54:20;;;;;;;12.57;6.35;;;;;;;15.38;43.07;99111.69;5055135;28;20032;-77
2021/05/12 05:56:46;;;;;;;9.65;6.43;;;;;;;15.91;42.97;99184.91;5074651;28;20417;-77
2021/05/12 05:59:12;;;;;;;10.15;5.25;;;;;;;15.98;42.64;99175.81;5075436;28;20032;-74
2021/05/12 06:01:37;;;;;;;8.63;5.20;;;;;;;16.19;42.96;99183.34;5057745;28;20029;-76
2021/05/12 06:04:03;;;;;;;9.02;6.15;;;;;;;15.97;42.81;99147.56;5070345;28;20073;-77
2021/05/12 06:06:29;;;;;;;8.57;4.60;;;;;;;16.34;42.72;99198.94;5070821;28;20032;-75
2021/05/12 06:08:54;;;;;;;6.90;4.07;;;;;;;16.12;42.89;99141.84;5055600;28;20040;-77
2021/05/12 06:11:21;;;;;;;11.70;5.32;;;;;;;16.47;42.53;99187.34;5054108;28;20040;-77
2021/05/12 06:13:48;;;;;;;8.77;4.30;;;;;;;16.30;42.40;99141.00;5054740;28;20108;-77
2021/05/12 06:16:14;;;;;;;7.07;5.45;;;;;;;16.26;42.35;99119.34;5054659;28;20036;-77
2021/05/12 06:18:39;;;;;;;7.40;4.35;;;;;;;16.16;42.29;99116.38;5055684;28;20435;-77
2021/05/12 06:21:05;;;;;;;5.65;3.75;;;;;;;16.25;41.88;99133.69;5056622;28;20029;-76
2021/05/12 06:23:32;;;;;;;7.72;4.50;;;;;;;16.63;41.90;99177.91;5031300;28;20116;-77
2021/05/12 06:25:58;;;;;;;6.70;3.40;;;;;;;16.28;42.04;99117.25;5035751;28;20420;-77
2021/05/12 06:28:23;;;;;;;4.60;2.60;;;;;;;16.82;41.51;99182.16;5052987;28;20404;-76
2021/05/12 06:30:50;;;;;;;5.13;2.70;;;;;;;16.53;41.45;99120.63;5054537;28;20029;-77
2021/05/12 06:33:17;;;;;;;4.03;2.17;;;;;;;16.87;41.04;99152.16;5036375;28;20085;-77
2021/05/12 06:35:42;;;;;;;4.65;2.30;;;;;;;16.73;40.95;99111.56;5055398;28;20040;-77
2021/05/12 06:38:08;;;;;;;2.63;2.30;;;;;;;16.91;40.72;99137.31;5038004;28;20032;-76
2021/05/12 06:40:34;;;;;;;4.32;2.40;;;;;;;17.08;40.38;99159.63;5049390;28;20498;-73
2021/05/12 06:43:00;;;;;;;3.20;2.10;;;;;;;16.70;39.70;99101.34;5035371;28;20051;-75
2021/05/12 06:45:26;;;;;;;3.65;2.30;;;;;;;17.23;40.07;99168.03;5030983;28;20021;-76
2021/05/12 06:47:54;;;;;;;6.10;2.35;;;;;;;17.27;40.05;99161.19;5047274;28;20332;-75
2021/05/12 06:50:20;;;;;;;4.80;2.30;;;;;;;17.25;39.67;99144.59;5050267;28;20025;-75
2021/05/12 06:52:51;;;;;;;6.68;2.28;;;;;;;17.41;39.23;99154.56;5052221;28;20024;-77
2021/05/12 06:55:16;;;;;;;5.97;2.58;;;;;;;17.03;39.30;99104.28;5031272;28;20029;-77
2021/05/12 06:57:42;;;;;;;3.47;1.85;;;;;;;16.63;39.31;99044.63;5053842;28;20493;-77
2021/05/12 07:00:08;;;;;;;4.93;2.15;;;;;;;17.26;39.18;99140.88;5052761;28;20033;-77
2021/05/12 07:02:33;;;;;;;3.53;1.90;;;;;;;17.32;39.09;99158.63;5051895;28;20079;-76
2021/05/12 07:04:58;;;;;;;3.40;2.08;;;;;;;17.35;38.69;99136.00;5052340;28;20039;-77
2021/05/12 07:07:24;;;;;;;5.65;2.30;;;;;;;17.26;38.62;99114.19;5052497;28;20028;-76
2021/05/12 07:09:49;;;;;;;4.15;2.28;;;;;;;17.53;38.79;99145.75;5034462;28;20339;-73
2021/05/12 07:12:14;;;;;;;7.13;2.00;;;;;;;17.39;38.69;99111.31;5049768;28;20151;-77
2021/05/12 07:14:40;;;;;;;3.08;1.90;;;;;;;17.73;38.32;99140.91;5052581;28;20029;-76
2021/05/12 07:17:05;;;;;;;6.85;2.50;;;;;;;17.25;38.26;99047.72;5050153;28;20025;-76
2021/05/12 07:19:31;;;;;;;3.25;2.08;;;;;;;17.88;38.21;99122.56;5032749;28;20140;-76
2021/05/12 07:21:56;;;;;;;5.93;2.90;;;;;;;17.99;38.02;99124.38;5053088;28;20028;-76
2021/05/12 07:24:21;;;;;;;3.95;2.65;;;;;;;17.29;37.71;98984.84;5052703;28;20178;-79
2021/05/12 07:26:49;;;;;;;6.10;3.25;;;;;;;18.32;37.18;99126.38;5053461;28;20059;-76
2021/05/12 07:29:14;;;;;;;6.05;3.95;;;;;;;17.87;36.91;99056.03;5048966;28;20043;-77
2021/05/12 07:31:39;;;;;;;7.05;5.47;;;;;;;17.90;36.23;99023.50;5053524;28;20029;-79
2021/05/12 07:34:06;;;;;;;4.07;2.95;;;;;;;18.48;35.75;99106.09;5051698;28;20032;-77
2021/05/12 07:36:32;;;;;;;5.72;3.05;;;;;;;18.73;34.91;99141.34;5051030;28;20040;-76
2021/05/12 07:38:57;;;;;;;4.38;3.10;;;;;;;18.43;34.95;99089.94;5052187;28;20126;-76
2021/05/12 07:41:23;;;;;;;6.07;3.67;;;;;;;18.74;35.56;99110.06;5052021;28;20040;-75
2021/05/12 07:43:48;;;;;;;4.70;2.42;;;;;;;18.89;34.63;99118.34;5051312;28;20090;-78
2021/05/12 07:46:13;;;;;;;3.80;2.30;;;;;;;19.05;33.94;99135.47;5061351;28;20024;-79
2021/05/12 07:48:39;;;;;;;7.18;4.20;;;;;;;18.90;33.78;99103.94;5055393;28;20025;-77
2021/05/12 07:51:04;;;;;;;5.10;2.78;;;;;;;18.63;33.36;99041.44;5039509;28;20507;-79
2021/05/12 07:53:30;;;;;;;3.28;2.05;;;;;;;19.12;33.15;99073.75;5056297;28;20087;-76
2021/05/12 07:55:55;;;;;;;2.72;1.70;;;;;;;19.30;32.08;99086.88;5055310;28;20032;-80
2021/05/12 07:58:21;;;;;;;2.50;1.60;;;;;;;19.49;31.78;99096.28;5038777;28;20052;-75
2021/05/12 08:00:47;;;;;;;1.42;1.25;;;;;;;19.38;31.38;99070.41;5056167;28;20033;-73
2021/05/12 08:03:13;;;;;;;2.70;1.48;;;;;;;19.48;31.11;99078.59;5056217;28;20025;-77
2021/05/12 08:05:38;;;;;;;3.38;1.70;;;;;;;19.29;31.10;99031.72;5059202;28;20027;-79
2021/05/12 08:08:04;;;;;;;3.60;1.40;;;;;;;19.67;31.20;99082.63;5052290;28;20024;-74
2021/05/12 08:10:30;;;;;;;3.63;1.38;;;;;;;19.85;30.98;99088.72;5056281;28;20028;-79
2021/05/12 08:12:55;;;;;;;3.22;1.63;;;;;;;19.85;31.01;99064.63;5056500;28;20078;-78
2021/05/12 08:15:21;;;;;;;3.38;1.88;;;;;;;19.81;30.96;99032.16;5058441;28;20024;-76
2021/05/12 08:17:46;;;;;;;2.60;1.25;;;;;;;19.88;30.65;99024.75;5059103;28;20021;-77
2021/05/12 08:20:12;;;;;;;2.53;1.58;;;;;;;20.33;30.29;99065.72;5055309;28;20161;-75
2021/05/12 08:22:37;;;;;;;5.03;1.15;;;;;;;20.19;30.21;99031.25;5055172;28;20017;-81
2021/05/12 08:25:03;;;;;;;2.00;1.48;;;;;;;20.45;29.87;99061.03;5038662;28;20032;-77
2021/05/12 08:27:29;;;;;;;3.33;1.67;;;;;;;20.35;30.22;99042.94;5054587;28;20025;-79
2021/05/12 08:29:59;;;;;;;2.08;1.52;;;;;;;20.21;30.41;99031.00;5052785;28;20112;-76
2021/05/12 08:32:25;;;;;;;4.15;1.60;;;;;;;20.20;30.69;99018.66;5034645;28;20176;-77
2021/05/12 08:34:50;;;;;;;2.50;1.50;;;;;;;20.53;30.81;99041.78;5052517;28;20667;-78
2021/05/12 08:37:16;;;;;;;3.20;1.55;;;;;;;20.50;30.81;99010.94;5054398;28;20021;-75
2021/05/12 08:39:41;;;;;;;2.47;1.50;;;;;;;20.35;30.25;98954.47;5054651;28;20024;-74
2021/05/12 08:42:07;;;;;;;3.50;1.88;;;;;;;20.43;30.03;98947.84;5035069;28;20031;-75
2021/05/12 08:44:34;;;;;;;6.40;1.73;;;;;;;20.89;29.65;99002.66;5054217;28;20032;-75
2021/05/12 08:47:01;;;;;;;4.40;1.52;;;;;;;20.84;29.63;98997.28;5036734;28;20320;-77
2021/05/12 08:49:28;;;;;;;3.25;1.48;;;;;;;21.00;29.49;99033.06;5039100;28;20032;-76
2021/05/12 08:51:53;;;;;;;3.10;1.60;;;;;;;20.84;29.47;98991.91;5038354;28;20430;-77
2021/05/12 08:54:19;;;;;;;4.57;2.20;;;;;;;20.63;30.05;98939.94;5055089;28;20109;-78
2021/05/12 08:56:44;;;;;;;3.53;2.10;;;;;;;21.35;29.78;99001.09;5054100;28;20029;-75
2021/05/12 08:59:10;;;;;;;2.15;1.40;;;;;;;21.64;29.42;99001.50;5046803;28;20317;-76
2021/05/12 09:01:35;;;;;;;3.22;1.63;;;;;;;21.75;28.91;98980.84;5036689;28;20343;-77
2021/05/12 09:04:02;;;;;;;3.63;2.00;;;;;;;22.19;28.96;99010.81;5052812;28;20025;-79
2021/05/12 09:06:28;;;;;;;2.05;1.85;;;;;;;22.30;28.96;98995.53;5054965;28;20021;-77
2021/05/12 09:08:56;;;;;;;3.22;1.58;;;;;;;22.38;28.77;98974.28;5032368;28;20028;-76
2021/05/12 09:11:22;;;;;;;3.28;1.77;;;;;;;22.34;28.83;98943.63;5050730;28;20319;-79
2021/05/12 09:13:47;;;;;;;3.90;1.88;;;;;;;22.33;28.69;98915.09;5052308;28;20104;-79
2021/05/12 09:16:30;;;;;;;3.97;1.90;;;;;;;23.12;28.55;99005.22;5054402;28;20406;-77
2021/05/12 09:19:13;;;;;;;2.45;1.63;;;;;;;23.34;28.46;99016.47;5055483;28;20047;-76
2021/05/12 09:22:06;;;;;;;2.83;1.48;;;;;;;23.41;27.83;98983.84;5037417;28;20021;-76
2021/05/12 09:24:34;;;;;;;1.70;1.52;;;;;;;23.72;27.32;99011.50;5049833;28;20048;-77
2021/05/12 09:27:09;;;;;;;4.05;1.48;;;;;;;23.74;27.19;98985.88;5035926;28;20483;-77
2021/05/12 09:29:40;;;;;;;5.38;1.92;;;;;;;23.73;26.90;98957.31;5053585;28;20095;-77
2021/05/12 09:32:09;;;;;;;2.55;1.40;;;;;;;24.06;27.09;99000.81;5037289;28;20048;-76
2021/05/12 09:35:00;;;;;;;2.95;1.40;;;;;;;24.40;26.53;98996.28;5037057;28;20067;-78
2021/05/12 09:37:32;;;;;;;2.38;1.23;;;;;;;24.30;26.47;98961.28;5042148;28;20021;-76
2021/05/12 09:39:59;;;;;;;2.92;1.95;;;;;;;24.52;25.93;98984.31;5017469;28;20462;-77
2021/05/12 09:42:25;;;;;;;2.63;1.77;;;;;;;24.58;25.82;98975.13;5053779;28;20056;-77
2021/05/12 09:45:20;;;;;;;3.45;1.30;;;;;;;24.70;25.55;98964.75;5037032;28;20106;-79
2021/05/12 09:47:47;;;;;;;7.82;2.72;;;;;;;24.72;25.40;98946.38;5032799;28;20013;-78
2021/05/12 09:50:14;;;;;;;1.50;1.40;;;;;;;24.89;25.34;98962.94;5018109;28;20414;-78
2021/05/12 09:52:39;;;;;;;2.15;1.10;;;;;;;24.70;24.85;98878.38;5053555;28;20048;-77
2021/05/12 09:55:07;;;;;;;1.90;1.38;;;;;;;24.98;24.74;98896.44;5041936;28;20017;-77
2021/05/12 09:57:33;;;;;;;2.10;1.90;;;;;;;25.56;25.04;98936.81;5042166;28;20353;-79
2021/05/12 09:59:58;;;;;;;1.90;1.60;;;;;;;25.40;24.37;98896.75;5055254;28;20021;-80
2021/05/12 10:02:24;;;;;;;4.55;1.60;;;;;;;25.63;24.35;98920.22;5036939;28;20032;-78
2021/05/12 10:04:50;;;;;;;3.25;2.55;;;;;;;25.69;24.51;98900.16;5037102;28;20390;-80
2021/05/12 10:07:18;;;;;;;3.40;2.38;;;;;;;25.63;24.21;98871.56;5037031;28;20104;-80
2021/05/12 10:09:45;;;;;;;5.35;2.20;;;;;;;25.70;24.11;98873.94;5036081;28;20029;-80
2021/05/12 10:12:27;;;;;;;2.83;2.28;;;;;;;25.98;24.29;98916.22;5057945;28;20025;-79
2021/05/12 10:14:57;;;;;;;3.65;1.90;;;;;;;25.60;24.28;98828.88;5043690;28;20308;-79
2021/05/12 10:17:25;;;;;;;2.13;1.40;;;;;;;26.09;24.16;98906.88;5052239;28;20468;-79
2021/05/12 10:19:52;;;;;;;2.88;1.40;;;;;;;26.02;24.00;98867.78;5055108;28;20021;-77
2021/05/12 10:22:19;;;;;;;2.65;1.30;;;;;;;26.27;23.94;98875.47;5020571;28;20017;-79
2021/05/12 10:24:47;;;;;;;2.70;1.10;;;;;;;26.58;23.66;98889.28;5054538;28;20016;-79
2021/05/12 10:27:22;;;;;;;2.28;1.15;;;;;;;26.80;23.74;98904.88;5052503;28;20154;-77
2021/05/12 10:29:49;;;;;;;2.22;1.40;;;;;;;26.72;23.67;98845.97;5053513;28;20032;-80
2021/05/12 10:32:26;;;;;;;7.05;1.27;;;;;;;27.21;23.38;98904.91;5052862;28;20104;-80
2021/05/12 10:35:13;;;;;;;2.85;1.40;;;;;;;27.13;22.83;98906.41;5052391;28;20028;-78
2021/05/12 10:37:41;;;;;;;3.17;1.17;;;;;;;27.02;22.85;98871.69;5052481;28;20025;-78
2021/05/12 10:40:29;;;;;;;2.30;1.55;;;;;;;27.34;22.66;98901.38;5054746;28;20059;-77
2021/05/12 10:46:19;;;;;;;4.28;1.40;;;;;;;27.32;22.69;98886.50;5054254;28;20041;-79
2021/05/12 10:48:49;;;;;;;4.68;1.80;;;;;;;26.73;22.54;98775.25;5033972;28;20033;-79
2021/05/12 10:51:20;;;;;;;2.03;1.52;;;;;;;27.70;21.85;98878.94;5034254;28;20032;-78
2021/05/12 10:53:51;;;;;;;2.55;1.30;;;;;;;27.76;21.85;98867.66;5031246;28;20028;-77
2021/05/12 10:56:18;;;;;;;4.37;1.60;;;;;;;27.96;21.82;98874.53;5053629;28;20036;-78
2021/05/12 10:58:43;;;;;;;3.70;1.17;;;;;;;28.33;21.66;98870.66;5028752;28;20029;-80
2021/05/12 11:01:11;;;;;;;3.25;1.70;;;;;;;28.41;21.46;98864.47;5033115;28;20348;-77
2021/05/12 11:03:52;;;;;;;1.65;1.50;;;;;;;28.42;21.24;98857.13;5050200;28;20029;-77
2021/05/12 11:06:22;;;;;;;1.77;1.13;;;;;;;28.39;21.25;98866.69;5035362;28;20021;-79
2021/05/12 11:09:12;;;;;;;2.60;1.65;;;;;;;28.62;21.06;98858.50;5054145;28;20347;-77
2021/05/12 11:11:38;;;;;;;3.42;1.30;;;;;;;28.59;21.48;98864.56;5052710;28;20032;-80
2021/05/12 11:14:25;;;;;;;3.97;2.20;;;;;;;28.59;21.54;98862.63;5053954;28;20025;-75
2021/05/12 11:17:03;;;;;;;2.90;1.50;;;;;;;28.57;21.32;98861.34;5034599;28;20344;-77
2021/05/12 11:19:35;;;;;;;2.42;1.50;;;;;;;28.29;21.88;98864.25;5050856;28;20032;-75
2021/05/12 11:22:31;;;;;;;3.42;1.20;;;;;;;28.11;21.97;98857.84;5038096;28;20024;-77
2021/05/12 11:25:11;;;;;;;4.40;1.40;;;;;;;27.78;22.25;98862.75;5052992;28;20100;-76
2021/05/12 11:33:30;;;;;;;2.30;1.30;;;;;;;27.43;23.13;98845.31;5053516;28;20056;-76
2021/05/12 11:36:00;;;;;;;2.65;1.60;;;;;;;27.14;23.08;98840.28;5060120;28;20055;-75
2021/05/12 11:38:26;;;;;;;2.72;1.50;;;;;;;26.88;23.63;98828.34;5057623;28;20025;-78
2021/05/12 11:41:06;;;;;;;2.17;2.00;;;;;;;26.87;23.63;98837.56;5057658;28;20027;-76
2021/05/12 11:43:41;;;;;;;5.43;2.20;;;;;;;26.71;23.96;98842.44;5056462;28;20075;-78